Time;durP1;ratioP1;P1;durP2;ratioP2;P2;SDS_P1;SDS_P2;PMS_P1;PMS_P2;Temp;Humidity;BMP_temperature;BMP_pressure;BME280_temperature;BME280_humidity;BME280_pressure;Samples;Min_cycle;Max_cycle;Signal;HPM_P1;HPM_P2
2023/08/12 00:02:24;;;;;;;0.00;0.00;;;20.40;99.90;;;;;;7382604;19;20152;-70
2023/08/12 00:04:52;;;;;;;0.00;0.00;;;20.40;99.90;;;;;;7384355;19;20164;-72
2023/08/12 00:07:21;;;;;;;0.00;0.00;;;20.40;99.90;;;;;;7382631;19;20181;-72
2023/08/12 00:09:50;;;;;;;0.00;0.00;;;20.40;99.90;;;;;;7386875;19;20181;-71
2023/08/12 00:12:18;;;;;;;0.00;0.00;;;20.40;99.90;;;;;;7384749;19;20153;-72
2023/08/12 00:14:50;;;;;;;0.00;0.00;;;20.50;99.90;;;;;;7384579;19;20176;-73
2023/08/12 00:17:18;;;;;;;0.00;0.00;;;20.50;99.90;;;;;;7385810;19;20153;-71
2023/08/12 00:19:47;;;;;;;0.00;0.00;;;20.50;99.90;;;;;;7385594;19;20168;-72
2023/08/12 00:22:16;;;;;;;0.00;0.00;;;20.50;99.90;;;;;;7384099;19;20156;-73
2023/08/12 00:24:45;;;;;;;0.00;0.00;;;20.50;99.90;;;;;;7382290;19;20197;-73
2023/08/12 00:27:13;;;;;;;0.00;0.00;;;20.50;99.90;;;;;;7384326;19;20140;-72
2023/08/12 00:29:42;;;;;;;0.00;0.00;;;20.60;99.90;;;;;;7384256;19;20163;-71
2023/08/12 00:32:14;;;;;;;0.00;0.00;;;20.60;99.90;;;;;;7386295;19;20148;-73
2023/08/12 00:34:42;;;;;;;0.00;0.00;;;20.60;99.90;;;;;;7384593;19;20213;-70
2023/08/12 00:37:11;;;;;;;0.00;0.00;;;20.60;99.90;;;;;;7386235;19;20160;-71
2023/08/12 00:39:39;;;;;;;0.00;0.00;;;20.60;99.90;;;;;;7386583;19;20508;-75
2023/08/12 00:42:08;;;;;;;0.00;0.00;;;20.60;99.90;;;;;;7384847;19;20228;-72
2023/08/12 00:44:37;;;;;;;0.00;0.00;;;20.60;99.90;;;;;;7376745;19;20533;-71
2023/08/12 00:47:06;;;;;;;0.00;0.00;;;20.60;99.90;;;;;;7383580;19;20220;-75
2023/08/12 00:49:38;;;;;;;0.00;0.00;;;20.60;99.90;;;;;;7385184;19;20183;-72
2023/08/12 00:52:07;;;;;;;0.00;0.00;;;20.60;99.90;;;;;;7387409;19;20135;-74
2023/08/12 00:54:36;;;;;;;0.00;0.00;;;20.50;99.90;;;;;;7383498;19;20180;-71
2023/08/12 00:57:05;;;;;;;0.00;0.00;;;20.50;99.90;;;;;;7388114;19;20152;-75
2023/08/12 00:59:39;;;;;;;0.00;0.00;;;20.50;99.90;;;;;;7385789;19;20149;-74
2023/08/12 01:02:08;;;;;;;0.00;0.00;;;20.50;99.90;;;;;;7388569;19;20145;-72
2023/08/12 01:04:40;;;;;;;0.00;0.00;;;20.40;99.90;;;;;;7387005;19;20169;-71
2023/08/12 01:07:08;;;;;;;0.00;0.00;;;20.40;99.90;;;;;;7387950;19;20149;-74
2023/08/12 01:09:37;;;;;;;0.00;0.00;;;;;;;;;;7390857;19;20149;-74
2023/08/12 01:12:10;;;;;;;0.00;0.00;;;;;;;;;;7394568;19;20149;-70
2023/08/12 01:14:42;;;;;;;0.00;0.00;;;;;;;;;;7391364;19;20192;-73
2023/08/12 01:17:12;;;;;;;0.00;0.00;;;;;;;;;;7390481;19;20620;-73
2023/08/12 01:19:45;;;;;;;0.00;0.00;;;;;;;;;;7391149;19;20231;-73
2023/08/12 01:22:14;;;;;;;0.00;0.00;;;;;;;;;;7391585;19;20153;-70
2023/08/12 01:24:46;;;;;;;0.00;0.00;;;;;;;;;;7390288;19;20187;-75
2023/08/12 01:27:16;;;;;;;0.00;0.00;;;;;;;;;;7387062;19;20133;-74
2023/08/12 01:29:46;;;;;;;0.00;0.00;;;;;;;;;;7389694;19;20148;-70
2023/08/12 01:32:19;;;;;;;0.00;0.00;;;;;;;;;;7388916;19;20177;-72
2023/08/12 01:34:51;;;;;;;0.00;0.00;;;;;;;;;;7385296;19;20172;-71
2023/08/12 01:37:23;;;;;;;0.00;0.00;;;;;;;;;;7384580;19;20157;-74
2023/08/12 01:39:56;;;;;;;0.00;0.00;;;;;;;;;;7388340;19;20177;-72
2023/08/12 01:42:25;;;;;;;0.00;0.00;;;;;;;;;;7387861;19;20741;-72
2023/08/12 01:44:54;;;;;;;0.00;0.00;;;20.40;99.90;;;;;;7385338;19;20180;-71
2023/08/12 01:47:23;;;;;;;0.00;0.00;;;20.30;99.90;;;;;;7381944;19;20136;-73
2023/08/12 01:49:51;;;;;;;0.00;0.00;;;20.20;99.90;;;;;;7387089;19;20133;-73
2023/08/12 01:52:20;;;;;;;0.00;0.00;;;20.40;99.90;;;;;;7387552;19;20156;-72
2023/08/12 01:54:49;;;;;;;0.00;0.00;;;20.00;99.90;;;;;;7387247;19;20157;-73
2023/08/12 01:57:20;;;;;;;0.00;0.00;;;20.00;99.90;;;;;;7388254;19;20140;-72
2023/08/12 01:59:49;;;;;;;0.00;0.00;;;19.90;99.90;;;;;;7386681;19;20147;-73
2023/08/12 02:02:20;;;;;;;0.00;0.00;;;20.10;99.90;;;;;;7387028;19;20153;-75
2023/08/12 02:04:49;;;;;;;0.00;0.00;;;;;;;;;;7383139;19;20172;-75
2023/08/12 02:07:18;;;;;;;0.00;0.00;;;;;;;;;;7383633;19;20150;-73
2023/08/12 02:09:47;;;;;;;0.00;0.00;;;;;;;;;;7385590;19;20177;-73
2023/08/12 02:12:16;;;;;;;0.00;0.00;;;;;;;;;;7386765;19;20176;-71
2023/08/12 02:14:49;;;;;;;0.00;0.00;;;19.60;99.90;;;;;;7383228;19;20187;-73
2023/08/12 02:17:18;;;;;;;0.00;0.00;;;19.60;99.90;;;;;;7384069;19;20153;-72
2023/08/12 02:19:44;;;;;;;0.00;0.00;;;19.60;99.90;;;;;;7380525;19;20164;-73
2023/08/12 02:22:12;;;;;;;0.00;0.00;;;19.50;99.90;;;;;;7379680;19;20157;-72
2023/08/12 02:24:42;;;;;;;0.00;0.00;;;;;;;;;;7379358;19;20145;-73
2023/08/12 02:27:11;;;;;;;0.00;0.00;;;;;;;;;;7380241;19;20139;-73
2023/08/12 02:29:42;;;;;;;0.00;0.00;;;19.30;99.90;;;;;;7383157;19;20133;-72
2023/08/12 02:32:14;;;;;;;0.00;0.00;;;19.40;99.90;;;;;;7381495;19;20141;-73
2023/08/12 02:34:43;;;;;;;0.00;0.00;;;;;;;;;;7380754;19;20180;-71
2023/08/12 02:37:12;;;;;;;0.00;0.00;;;;;;;;;;7384567;19;20192;-73
2023/08/12 02:39:41;;;;;;;0.00;0.00;;;;;;;;;;7384896;19;20174;-74
2023/08/12 02:42:10;;;;;;;0.00;0.00;;;;;;;;;;7382053;19;20165;-71
2023/08/12 02:44:39;;;;;;;0.00;0.00;;;19.40;99.90;;;;;;7378650;19;20187;-71
2023/08/12 02:47:08;;;;;;;0.00;0.00;;;19.30;99.90;;;;;;7384151;19;20148;-72
2023/08/12 02:49:39;;;;;;;0.00;0.00;;;19.20;99.90;;;;;;7385639;19;20165;-72
2023/08/12 02:52:08;;;;;;;0.00;0.00;;;19.20;99.90;;;;;;7386521;19;20133;-71
2023/08/12 02:54:36;;;;;;;0.00;0.00;;;19.20;99.90;;;;;;7383535;19;20273;-72
2023/08/12 02:57:05;;;;;;;0.00;0.00;;;19.10;99.90;;;;;;7384056;19;20136;-72
2023/08/12 02:59:34;;;;;;;0.00;0.00;;;19.10;99.90;;;;;;7382418;19;20177;-74
2023/08/12 03:02:03;;;;;;;0.00;0.00;;;;;;;;;;7388031;19;20140;-72
2023/08/12 03:04:32;;;;;;;0.00;0.00;;;18.90;99.90;;;;;;7382404;19;20156;-70
2023/08/12 03:07:03;;;;;;;0.00;0.00;;;19.20;99.90;;;;;;7376855;19;20165;-73
2023/08/12 03:09:32;;;;;;;0.00;0.00;;;19.10;99.90;;;;;;7381074;19;20169;-71
2023/08/12 03:12:02;;;;;;;0.00;0.00;;;19.00;99.90;;;;;;7386323;19;20234;-75
2023/08/12 03:14:32;;;;;;;0.00;0.00;;;19.20;99.90;;;;;;7384198;19;20180;-71
2023/08/12 03:17:03;;;;;;;0.00;0.00;;;19.30;99.90;;;;;;7385360;19;20189;-72
2023/08/12 03:19:33;;;;;;;0.00;0.00;;;19.30;99.90;;;;;;7385207;19;20153;-72
2023/08/12 03:22:04;;;;;;;0.00;0.00;;;19.30;99.90;;;;;;7384867;19;20220;-71
2023/08/12 03:24:33;;;;;;;0.00;0.00;;;19.20;99.90;;;;;;7382881;19;20185;-73
2023/08/12 03:27:02;;;;;;;0.00;0.00;;;19.30;99.90;;;;;;7384044;19;20160;-72
2023/08/12 03:29:33;;;;;;;0.00;0.00;;;19.30;99.90;;;;;;7382140;19;20160;-71
2023/08/12 03:32:02;;;;;;;0.00;0.00;;;19.20;99.90;;;;;;7384963;19;20152;-74
2023/08/12 03:34:32;;;;;;;0.00;0.00;;;19.20;99.90;;;;;;7383239;19;20191;-74
2023/08/12 03:37:04;;;;;;;0.00;0.00;;;19.20;99.90;;;;;;7386175;19;20149;-73
2023/08/12 03:39:33;;;;;;;0.00;0.00;;;19.20;99.90;;;;;;7387128;19;20220;-71
2023/08/12 03:42:03;;;;;;;0.00;0.00;;;18.90;99.90;;;;;;7385234;19;20149;-71
2023/08/12 03:44:32;;;;;;;0.00;0.00;;;;;;;;;;7382471;19;20199;-73
2023/08/12 03:47:01;;;;;;;0.00;0.00;;;;;;;;;;7384983;19;20141;-74
2023/08/12 03:49:31;;;;;;;0.00;0.00;;;;;;;;;;7382240;19;20160;-75
2023/08/12 03:52:00;;;;;;;0.00;0.00;;;;;;;;;;7386953;19;20137;-74
2023/08/12 03:54:31;;;;;;;0.00;0.00;;;19.20;99.90;;;;;;7384429;19;20173;-73
2023/08/12 03:57:00;;;;;;;0.00;0.00;;;;;;;;;;7382375;19;20151;-72
2023/08/12 03:59:30;;;;;;;0.00;0.00;;;;;;;;;;7385053;19;20155;-71
2023/08/12 04:01:59;;;;;;;0.00;0.00;;;19.20;99.90;;;;;;7385330;19;20227;-73
2023/08/12 04:04:30;;;;;;;0.00;0.00;;;19.20;99.90;;;;;;7383582;19;20208;-72
2023/08/12 04:06:59;;;;;;;0.00;0.00;;;;;;;;;;7383062;19;20173;-71
2023/08/12 04:09:27;;;;;;;0.00;0.00;;;19.30;99.90;;;;;;7383724;19;20215;-73
2023/08/12 04:11:59;;;;;;;0.00;0.00;;;19.50;99.90;;;;;;7386912;19;20196;-71
2023/08/12 04:14:28;;;;;;;0.00;0.00;;;19.30;99.90;;;;;;7383177;19;20176;-74
2023/08/12 04:16:56;;;;;;;0.00;0.00;;;19.40;99.90;;;;;;7384047;19;20137;-77
2023/08/12 04:19:25;;;;;;;0.00;0.00;;;19.40;99.90;;;;;;7388084;19;20133;-73
2023/08/12 04:21:54;;;;;;;0.00;0.00;;;19.50;99.90;;;;;;7386060;19;20141;-74
2023/08/12 04:24:23;;;;;;;0.00;0.00;;;19.50;99.90;;;;;;7385364;19;20145;-72
2023/08/12 04:26:51;;;;;;;0.00;0.00;;;19.50;99.90;;;;;;7383563;19;20156;-71
2023/08/12 04:29:23;;;;;;;0.00;0.00;;;19.50;99.90;;;;;;7382437;19;20153;-73
2023/08/12 04:31:52;;;;;;;0.00;0.00;;;19.50;99.90;;;;;;7383386;19;20153;-72
2023/08/12 04:34:22;;;;;;;0.00;0.00;;;;;;;;;;7385731;19;20644;-75
2023/08/12 04:36:52;;;;;;;0.00;0.00;;;19.80;99.90;;;;;;7386773;19;20149;-71
2023/08/12 04:39:21;;;;;;;0.00;0.00;;;19.50;99.90;;;;;;7386943;19;20159;-76
2023/08/12 04:41:49;;;;;;;0.00;0.00;;;19.50;99.90;;;;;;7383511;19;20164;-72
2023/08/12 04:44:25;;;;;;;0.00;0.00;;;19.50;99.90;;;;;;7384472;19;20192;-74
2023/08/12 04:46:53;;;;;;;0.00;0.00;;;19.50;99.90;;;;;;7385725;19;20153;-73
2023/08/12 04:49:23;;;;;;;0.00;0.00;;;19.50;99.90;;;;;;7386435;19;20176;-73
2023/08/12 04:51:54;;;;;;;0.00;0.00;;;19.60;99.90;;;;;;7385931;19;20182;-72
2023/08/12 04:54:23;;;;;;;0.00;0.00;;;19.60;99.90;;;;;;7387187;19;20184;-74
2023/08/12 04:56:52;;;;;;;0.00;0.00;;;19.60;99.90;;;;;;7388261;19;20149;-71
2023/08/12 04:59:24;;;;;;;0.00;0.00;;;19.60;99.90;;;;;;7386813;19;20189;-73
2023/08/12 05:01:52;;;;;;;0.00;0.00;;;19.60;99.90;;;;;;7387871;19;20148;-73
2023/08/12 05:04:21;;;;;;;0.00;0.00;;;19.70;99.90;;;;;;7383010;19;20180;-71
2023/08/12 05:06:50;;;;;;;0.00;0.00;;;19.70;99.90;;;;;;7381692;19;20782;-74
2023/08/12 05:09:19;;;;;;;0.00;0.00;;;19.70;99.90;;;;;;7381427;19;20278;-73
2023/08/12 05:11:48;;;;;;;0.00;0.00;;;19.80;99.90;;;;;;7382151;19;20169;-73
2023/08/12 05:14:16;;;;;;;0.00;0.00;;;19.80;99.90;;;;;;7386323;19;20191;-72
2023/08/12 05:16:48;;;;;;;0.00;0.00;;;19.90;99.90;;;;;;7386675;19;20169;-73
2023/08/12 05:19:17;;;;;;;0.00;0.00;;;19.90;99.90;;;;;;7386174;19;20157;-73
2023/08/12 05:21:46;;;;;;;0.00;0.00;;;19.90;99.90;;;;;;7386719;19;20157;-72
2023/08/12 05:24:15;;;;;;;0.00;0.00;;;20.00;99.90;;;;;;7386411;19;20191;-73
2023/08/12 05:26:45;;;;;;;0.00;0.00;;;20.00;99.90;;;;;;7386629;19;20161;-71
2023/08/12 05:29:14;;;;;;;0.00;0.00;;;20.10;99.90;;;;;;7387269;19;20144;-71
2023/08/12 05:31:43;;;;;;;0.00;0.00;;;20.10;99.90;;;;;;7382785;19;20140;-74
2023/08/12 05:34:14;;;;;;;0.00;0.00;;;20.20;99.90;;;;;;7380246;19;20184;-73
2023/08/12 05:36:42;;;;;;;0.00;0.00;;;20.20;99.90;;;;;;7387481;19;20125;-72
2023/08/12 05:39:11;;;;;;;0.00;0.00;;;20.30;99.90;;;;;;7383514;19;20176;-72
2023/08/12 05:41:40;;;;;;;0.00;0.00;;;20.30;99.90;;;;;;7383984;19;20173;-72
2023/08/12 05:44:09;;;;;;;0.00;0.00;;;20.40;99.90;;;;;;7380310;19;20181;-71
2023/08/12 05:46:37;;;;;;;0.00;0.00;;;20.40;99.90;;;;;;7385013;19;20160;-72
2023/08/12 05:49:07;;;;;;;0.00;0.00;;;20.50;99.90;;;;;;7385930;19;20596;-72
2023/08/12 05:51:38;;;;;;;0.00;0.00;;;20.50;99.90;;;;;;7387281;19;20137;-72
2023/08/12 05:54:07;;;;;;;0.00;0.00;;;20.50;99.90;;;;;;7385094;19;20193;-72
2023/08/12 05:56:36;;;;;;;0.00;0.00;;;20.60;99.90;;;;;;7389803;19;20220;-73
2023/08/12 05:59:05;;;;;;;0.00;0.00;;;20.60;99.90;;;;;;7386120;19;20157;-75
2023/08/12 06:01:33;;;;;;;0.00;0.00;;;20.60;99.90;;;;;;7383359;19;20649;-72
2023/08/12 06:04:02;;;;;;;0.00;0.00;;;20.60;99.90;;;;;;7381917;19;20180;-74
2023/08/12 06:06:31;;;;;;;0.00;0.00;;;20.60;99.90;;;;;;7383194;19;20160;-70
2023/08/12 06:09:03;;;;;;;0.00;0.00;;;20.60;99.90;;;;;;7379417;19;20148;-72
2023/08/12 06:11:31;;;;;;;0.00;0.00;;;20.60;99.90;;;;;;7382657;19;20140;-72
2023/08/12 06:14:00;;;;;;;0.00;0.00;;;20.60;99.90;;;;;;7377548;19;20180;-71
2023/08/12 06:16:29;;;;;;;0.00;0.00;;;20.50;99.90;;;;;;7380508;19;20144;-72
2023/08/12 06:18:58;;;;;;;0.00;0.00;;;20.50;99.90;;;;;;7377640;19;20180;-71
2023/08/12 06:21:27;;;;;;;0.00;0.00;;;20.50;99.90;;;;;;7378956;19;20155;-72
2023/08/12 06:23:57;;;;;;;0.00;0.00;;;20.40;99.90;;;;;;7378324;19;20168;-72
2023/08/12 06:26:28;;;;;;;0.00;0.00;;;20.40;99.90;;;;;;7377545;19;20149;-71
2023/08/12 06:28:57;;;;;;;0.00;0.00;;;20.40;99.90;;;;;;7377701;19;20157;-72
2023/08/12 06:31:25;;;;;;;0.00;0.00;;;20.40;99.90;;;;;;7378570;19;20145;-71
2023/08/12 06:33:54;;;;;;;0.00;0.00;;;20.50;99.90;;;;;;7379506;19;20157;-72
2023/08/12 06:36:23;;;;;;;0.00;0.00;;;20.50;99.90;;;;;;7376461;19;20148;-72
2023/08/12 06:38:51;;;;;;;0.00;0.00;;;20.50;99.90;;;;;;7377159;19;20164;-71
2023/08/12 06:41:20;;;;;;;0.00;0.00;;;20.50;99.90;;;;;;7379728;19;20145;-72
2023/08/12 06:43:51;;;;;;;0.00;0.00;;;20.50;99.90;;;;;;7380466;19;20157;-72
2023/08/12 06:46:20;;;;;;;0.00;0.00;;;20.50;99.90;;;;;;7383484;19;20140;-72
2023/08/12 06:48:49;;;;;;;0.00;0.00;;;20.50;99.90;;;;;;7385028;19;20189;-71
2023/08/12 06:51:18;;;;;;;0.00;0.00;;;20.60;99.90;;;;;;7385466;19;20149;-73
2023/08/12 06:53:46;;;;;;;0.00;0.00;;;20.60;99.90;;;;;;7383696;19;20177;-72
2023/08/12 06:56:15;;;;;;;0.00;0.00;;;20.60;99.90;;;;;;7376651;19;20260;-72
2023/08/12 06:58:44;;;;;;;0.00;0.00;;;20.60;99.90;;;;;;7379955;19;20129;-71
2023/08/12 07:01:15;;;;;;;0.00;0.00;;;20.60;99.90;;;;;;7384181;19;20157;-71
2023/08/12 07:03:43;;;;;;;0.00;0.00;;;20.60;99.90;;;;;;7385660;19;20181;-72
2023/08/12 07:06:12;;;;;;;0.00;0.00;;;20.60;99.90;;;;;;7382927;19;20129;-72
2023/08/12 07:08:41;;;;;;;0.00;0.00;;;20.60;99.90;;;;;;7384328;19;20177;-71
2023/08/12 07:11:10;;;;;;;0.00;0.00;;;20.60;99.90;;;;;;7383591;19;20167;-72
2023/08/12 07:13:38;;;;;;;0.00;0.00;;;20.60;99.90;;;;;;7384127;19;20180;-72
2023/08/12 07:16:07;;;;;;;0.00;0.00;;;20.60;99.90;;;;;;7383337;19;20160;-71
2023/08/12 07:18:38;;;;;;;0.00;0.00;;;20.70;99.90;;;;;;7384852;19;20149;-72
2023/08/12 07:21:07;;;;;;;0.00;0.00;;;20.80;99.90;;;;;;7386049;19;20141;-71
2023/08/12 07:23:36;;;;;;;0.00;0.00;;;20.80;99.90;;;;;;7384292;19;20181;-71
2023/08/12 07:26:05;;;;;;;0.00;0.00;;;20.90;99.90;;;;;;7381029;19;20160;-72
2023/08/12 07:28:34;;;;;;;0.00;0.00;;;21.00;99.90;;;;;;7386362;19;20137;-72
2023/08/12 07:31:03;;;;;;;0.00;0.00;;;21.00;99.90;;;;;;7386175;19;20137;-71
2023/08/12 07:33:32;;;;;;;0.00;0.00;;;21.00;99.90;;;;;;7384258;19;20188;-71
2023/08/12 07:36:03;;;;;;;0.00;0.00;;;21.00;99.90;;;;;;7384494;19;20137;-73
2023/08/12 07:38:32;;;;;;;0.00;0.00;;;21.10;99.90;;;;;;7385032;19;20152;-72
2023/08/12 07:41:01;;;;;;;0.00;0.00;;;21.10;99.90;;;;;;7384901;19;20160;-72
2023/08/12 07:43:30;;;;;;;0.00;0.00;;;21.20;99.90;;;;;;7386518;19;20161;-72
2023/08/12 07:45:58;;;;;;;0.00;0.00;;;21.30;99.90;;;;;;7385189;19;20133;-72
2023/08/12 07:48:27;;;;;;;0.00;0.00;;;21.30;99.90;;;;;;7385566;19;20148;-72
2023/08/12 07:51:02;;;;;;;0.00;0.00;;;21.40;99.90;;;;;;7384199;19;20137;-71
2023/08/12 07:53:31;;;;;;;0.00;0.00;;;21.40;99.90;;;;;;7384853;19;20156;-72
2023/08/12 07:56:00;;;;;;;0.00;0.00;;;21.40;99.90;;;;;;7382116;19;20153;-72
2023/08/12 07:58:28;;;;;;;0.00;0.00;;;21.40;99.90;;;;;;7384644;19;20153;-72
2023/08/12 08:00:57;;;;;;;0.00;0.00;;;21.50;99.90;;;;;;7386006;19;20162;-72
2023/08/12 08:03:26;;;;;;;0.00;0.00;;;21.50;99.90;;;;;;7382549;19;20168;-72
2023/08/12 08:05:55;;;;;;;0.00;0.00;;;21.50;99.90;;;;;;7385223;19;20136;-71
2023/08/12 08:08:26;;;;;;;0.00;0.00;;;21.60;99.90;;;;;;7381694;19;20148;-72
2023/08/12 08:10:55;;;;;;;0.00;0.00;;;21.60;99.90;;;;;;7383791;19;20145;-71
2023/08/12 08:13:24;;;;;;;0.00;0.00;;;21.60;99.90;;;;;;7383189;19;20153;-72
2023/08/12 08:15:52;;;;;;;0.00;0.00;;;21.60;99.90;;;;;;7384329;19;20145;-73
2023/08/12 08:18:21;;;;;;;0.00;0.00;;;21.70;99.90;;;;;;7383768;19;20129;-72
2023/08/12 08:20:50;;;;;;;0.00;0.00;;;21.70;99.90;;;;;;7386420;19;20141;-72
2023/08/12 08:23:19;;;;;;;0.00;0.00;;;21.70;99.90;;;;;;7382621;19;20157;-72
2023/08/12 08:25:50;;;;;;;0.00;0.00;;;21.70;99.90;;;;;;7383238;19;20152;-71
2023/08/12 08:28:19;;;;;;;0.00;0.00;;;21.70;99.90;;;;;;7384870;19;20588;-70
2023/08/12 08:30:48;;;;;;;0.00;0.00;;;21.70;99.90;;;;;;7384339;19;20133;-72
2023/08/12 08:33:16;;;;;;;0.00;0.00;;;21.70;99.90;;;;;;7383140;19;20163;-72
2023/08/12 08:35:45;;;;;;;0.00;0.00;;;21.80;99.90;;;;;;7383148;19;20152;-72
2023/08/12 08:38:14;;;;;;;0.00;0.00;;;21.80;99.90;;;;;;7381882;19;20161;-72
2023/08/12 08:40:43;;;;;;;0.00;0.00;;;21.90;99.90;;;;;;7384662;19;20133;-72
2023/08/12 08:43:18;;;;;;;0.00;0.00;;;21.90;99.90;;;;;;7383135;19;20173;-73
2023/08/12 08:45:47;;;;;;;0.00;0.00;;;21.90;99.90;;;;;;7382589;19;20131;-71
2023/08/12 08:48:16;;;;;;;0.00;0.00;;;22.00;99.90;;;;;;7382436;19;20141;-72
2023/08/12 08:50:46;;;;;;;0.00;0.00;;;22.00;99.90;;;;;;7382464;19;20133;-72
2023/08/12 08:53:16;;;;;;;0.00;0.00;;;22.00;99.90;;;;;;7381141;19;20152;-72
2023/08/12 08:55:46;;;;;;;0.00;0.00;;;22.00;99.90;;;;;;7383673;19;20129;-74
2023/08/12 08:58:18;;;;;;;0.00;0.00;;;22.10;99.90;;;;;;7383072;19;20137;-73
2023/08/12 09:00:47;;;;;;;0.00;0.00;;;22.10;99.90;;;;;;7382837;19;20145;-73
2023/08/12 09:03:17;;;;;;;0.00;0.00;;;22.00;99.90;;;;;;7380768;19;20184;-72
2023/08/12 09:05:46;;;;;;;0.00;0.00;;;22.10;99.90;;;;;;7381638;19;20159;-73
2023/08/12 09:08:16;;;;;;;0.00;0.00;;;22.00;99.90;;;;;;7381551;19;20144;-73
2023/08/12 09:10:45;;;;;;;0.00;0.00;;;22.00;99.90;;;;;;7382791;19;20137;-71
2023/08/12 09:13:14;;;;;;;0.00;0.00;;;22.00;99.90;;;;;;7378843;19;20180;-72
2023/08/12 09:15:46;;;;;;;0.00;0.00;;;22.00;99.90;;;;;;7381653;19;20153;-73
2023/08/12 09:18:17;;;;;;;0.00;0.00;;;22.10;99.90;;;;;;7379805;19;20152;-75
2023/08/12 09:20:46;;;;;;;0.00;0.00;;;22.10;99.90;;;;;;7381653;19;20148;-75
2023/08/12 09:23:15;;;;;;;0.00;0.00;;;22.10;99.90;;;;;;7380713;19;20161;-74
2023/08/12 09:25:47;;;;;;;0.00;0.00;;;22.10;99.90;;;;;;7381839;19;20133;-73
2023/08/12 09:28:16;;;;;;;0.00;0.00;;;22.20;99.90;;;;;;7380891;19;20156;-73
2023/08/12 09:30:53;;;;;;;0.00;0.00;;;22.20;99.90;;;;;;7382191;19;20224;-73
2023/08/12 09:33:28;;;;;;;0.00;0.00;;;22.30;99.90;;;;;;7379478;19;20231;-74
2023/08/12 09:35:58;;;;;;;0.00;0.00;;;22.30;99.90;;;;;;7378712;19;20152;-75
2023/08/12 09:38:28;;;;;;;0.00;0.00;;;22.30;99.90;;;;;;7378738;19;20150;-72
2023/08/12 09:40:59;;;;;;;0.00;0.00;;;22.30;99.90;;;;;;7380902;19;20156;-74
2023/08/12 09:43:30;;;;;;;0.00;0.00;;;22.30;99.90;;;;;;7379081;19;20176;-74
2023/08/12 09:46:02;;;;;;;0.00;0.00;;;22.20;99.90;;;;;;7381719;19;20169;-73
2023/08/12 09:48:30;;;;;;;0.00;0.00;;;22.30;99.90;;;;;;7380553;19;20132;-73
2023/08/12 09:50:59;;;;;;;0.00;0.00;;;22.30;99.90;;;;;;7379037;19;20160;-73
2023/08/12 09:53:29;;;;;;;0.00;0.00;;;22.20;99.90;;;;;;7378953;19;20215;-72
2023/08/12 09:56:06;;;;;;;0.00;0.00;;;22.20;99.90;;;;;;7381563;19;20238;-72
2023/08/12 09:58:36;;;;;;;0.00;0.00;;;22.20;99.90;;;;;;7380134;19;20152;-73
2023/08/12 10:01:10;;;;;;;0.00;0.00;;;22.20;99.90;;;;;;7380965;19;20169;-73
2023/08/12 10:03:40;;;;;;;0.00;0.00;;;22.20;99.90;;;;;;7379567;19;20188;-73
2023/08/12 10:06:09;;;;;;;0.00;0.00;;;22.20;99.90;;;;;;7378783;19;20180;-73
2023/08/12 10:08:39;;;;;;;0.00;0.00;;;22.20;99.90;;;;;;7380579;19;20183;-73
2023/08/12 10:11:07;;;;;;;0.00;0.00;;;22.10;99.90;;;;;;7379800;19;20148;-73
2023/08/12 10:13:37;;;;;;;0.00;0.00;;;22.10;99.90;;;;;;7378778;19;20176;-73
2023/08/12 10:16:09;;;;;;;0.00;0.00;;;22.10;99.90;;;;;;7380335;19;20140;-73
2023/08/12 10:18:39;;;;;;;0.00;0.00;;;22.10;99.90;;;;;;7381719;19;20156;-73
2023/08/12 10:21:11;;;;;;;0.00;0.00;;;22.10;99.90;;;;;;7389609;19;20136;-73
2023/08/12 10:23:40;;;;;;;0.00;0.00;;;22.10;99.90;;;;;;7385901;19;20180;-73
2023/08/12 10:26:09;;;;;;;0.00;0.00;;;22.20;99.90;;;;;;7389394;19;20161;-73
2023/08/12 10:28:41;;;;;;;0.00;0.00;;;22.20;99.90;;;;;;7386741;19;20164;-73
2023/08/12 10:31:14;;;;;;;0.00;0.00;;;22.30;99.90;;;;;;7386772;19;20141;-73
2023/08/12 10:33:44;;;;;;;0.00;0.00;;;22.40;99.90;;;;;;7385604;19;20176;-73
2023/08/12 10:36:13;;;;;;;0.00;0.00;;;22.60;99.90;;;;;;7385971;19;20156;-72
2023/08/12 10:38:41;;;;;;;0.00;0.00;;;22.90;99.90;;;;;;7387222;19;20161;-73
2023/08/12 10:41:21;;;;;;;0.00;0.00;;;23.20;99.90;;;;;;7388756;19;20157;-73
2023/08/12 10:43:55;;;;;;;0.00;0.00;;;23.40;99.90;;;;;;7387585;19;20216;-72
2023/08/12 10:46:32;;;;;;;0.00;0.00;;;23.50;99.90;;;;;;7384786;19;20155;-73
2023/08/12 10:49:08;;;;;;;0.00;0.00;;;23.60;99.90;;;;;;7386870;19;20149;-72
2023/08/12 10:51:49;;;;;;;0.00;0.00;;;23.80;99.90;;;;;;7383528;19;20152;-72
2023/08/12 10:54:26;;;;;;;0.00;0.00;;;23.90;99.90;;;;;;7383445;19;20180;-73
2023/08/12 10:57:11;;;;;;;0.00;0.00;;;24.20;99.90;;;;;;7385842;19;20164;-73
2023/08/12 10:59:55;;;;;;;0.00;0.00;;;24.40;99.90;;;;;;7386368;19;20158;-74
2023/08/12 11:02:30;;;;;;;0.00;0.00;;;24.50;99.90;;;;;;7384669;19;20294;-73
2023/08/12 11:05:00;;;;;;;0.00;0.00;;;24.60;99.90;;;;;;7385063;19;20136;-73
2023/08/12 11:07:36;;;;;;;0.00;0.00;;;24.60;99.90;;;;;;7383046;19;20152;-73
2023/08/12 11:10:13;;;;;;;0.00;0.00;;;24.60;99.90;;;;;;7386666;19;20140;-74
2023/08/12 11:12:43;;;;;;;0.00;0.00;;;24.60;99.90;;;;;;7387342;19;20132;-72
2023/08/12 11:15:13;;;;;;;0.00;0.00;;;24.80;99.90;;;;;;7384971;19;20157;-73
2023/08/12 11:17:44;;;;;;;0.00;0.00;;;24.90;99.90;;;;;;7384376;19;20204;-71
2023/08/12 11:20:15;;;;;;;0.00;0.00;;;25.00;99.90;;;;;;7386553;19;20166;-73
2023/08/12 11:22:44;;;;;;;0.00;0.00;;;;;;;;;;7385146;19;20156;-73
2023/08/12 11:25:14;;;;;;;0.00;0.00;;;;;;;;;;7387336;19;20141;-72
2023/08/12 11:27:44;;;;;;;0.00;0.00;;;25.80;99.90;;;;;;7385892;19;20137;-72
2023/08/12 11:30:15;;;;;;;0.00;0.00;;;;;;;;;;7385073;19;20157;-72
2023/08/12 11:32:47;;;;;;;0.00;0.00;;;;;;;;;;7384230;19;20140;-73
2023/08/12 11:35:17;;;;;;;0.00;0.00;;;;;;;;;;7381675;19;20164;-74
2023/08/12 11:37:47;;;;;;;0.00;0.00;;;;;;;;;;7384421;19;20144;-72
2023/08/12 11:40:17;;;;;;;0.00;0.00;;;;;;;;;;7386546;19;20133;-73
2023/08/12 11:42:47;;;;;;;0.00;0.00;;;;;;;;;;7384765;19;20216;-72
2023/08/12 11:45:17;;;;;;;0.00;0.00;;;;;;;;;;7385432;19;20141;-72
2023/08/12 11:47:52;;;;;;;0.00;0.00;;;;;;;;;;7383316;19;20515;-72
2023/08/12 11:50:22;;;;;;;0.00;0.00;;;;;;;;;;7385313;19;20144;-74
2023/08/12 11:52:51;;;;;;;0.00;0.00;;;;;;;;;;7384531;19;20161;-73
2023/08/12 11:55:20;;;;;;;0.00;0.00;;;;;;;;;;7385045;19;20173;-72
2023/08/12 11:57:49;;;;;;;0.00;0.00;;;;;;;;;;7385671;19;20156;-72
2023/08/12 12:00:18;;;;;;;0.00;0.00;;;;;;;;;;7386390;19;20145;-75
2023/08/12 12:02:55;;;;;;;0.00;0.00;;;;;;;;;;7385876;19;20230;-71
2023/08/12 12:05:26;;;;;;;0.00;0.00;;;26.00;99.90;;;;;;7382086;19;20152;-71
2023/08/12 12:07:55;;;;;;;0.00;0.00;;;26.90;99.90;;;;;;7385813;19;20133;-71
2023/08/12 12:10:29;;;;;;;0.00;0.00;;;27.00;99.90;;;;;;7384112;19;20141;-72
2023/08/12 12:12:59;;;;;;;0.00;0.00;;;27.00;99.90;;;;;;7383496;19;20156;-72
2023/08/12 12:15:28;;;;;;;0.00;0.00;;;27.00;99.90;;;;;;7381411;19;20145;-72
2023/08/12 12:17:59;;;;;;;0.00;0.00;;;26.90;99.90;;;;;;7385646;19;20145;-71
2023/08/12 12:20:29;;;;;;;0.00;0.00;;;26.80;99.90;;;;;;7383001;19;20161;-71
2023/08/12 12:22:57;;;;;;;0.00;0.00;;;26.70;99.90;;;;;;7384766;19;20180;-72
2023/08/12 12:25:26;;;;;;;0.00;0.00;;;26.70;99.90;;;;;;7384611;19;20157;-71
2023/08/12 12:27:55;;;;;;;0.00;0.00;;;26.70;99.90;;;;;;7384840;19;20133;-71
2023/08/12 12:30:24;;;;;;;0.00;0.00;;;26.90;99.90;;;;;;7384799;19;20133;-71
2023/08/12 12:32:53;;;;;;;0.00;0.00;;;;;;;;;;7384556;19;20217;-69
2023/08/12 12:35:25;;;;;;;0.00;0.00;;;;;;;;;;7384338;19;20241;-72
2023/08/12 12:37:54;;;;;;;0.00;0.00;;;;;;;;;;7385676;19;20140;-70
2023/08/12 12:40:23;;;;;;;0.00;0.00;;;;;;;;;;7382764;19;20153;-74
2023/08/12 12:42:52;;;;;;;0.00;0.00;;;;;;;;;;7381783;19;20168;-70
2023/08/12 12:45:21;;;;;;;0.00;0.00;;;;;;;;;;7383408;19;20342;-71
2023/08/12 12:47:50;;;;;;;0.00;0.00;;;;;;;;;;7382678;19;20208;-72
2023/08/12 12:50:19;;;;;;;0.00;0.00;;;;;;;;;;7382860;19;20152;-72
2023/08/12 12:52:51;;;;;;;0.00;0.00;;;;;;;;;;7381014;19;20564;-71
2023/08/12 12:55:20;;;;;;;0.00;0.00;;;;;;;;;;7382397;19;20152;-73
2023/08/12 12:57:49;;;;;;;0.00;0.00;;;;;;;;;;7383735;19;20144;-71
2023/08/12 13:00:18;;;;;;;0.00;0.00;;;;;;;;;;7384058;19;20148;-71
2023/08/12 13:02:47;;;;;;;0.00;0.00;;;;;;;;;;7382778;19;20152;-72
2023/08/12 13:05:16;;;;;;;0.00;0.00;;;;;;;;;;7384415;19;20144;-73
2023/08/12 13:07:45;;;;;;;0.00;0.00;;;;;;;;;;7383784;19;20192;-71
2023/08/12 13:10:16;;;;;;;0.00;0.00;;;;;;;;;;7382977;19;20153;-75
2023/08/12 13:12:45;;;;;;;0.00;0.00;;;;;;;;;;7380744;19;20161;-75
2023/08/12 13:15:14;;;;;;;0.00;0.00;;;;;;;;;;7382172;19;20145;-71
2023/08/12 13:17:43;;;;;;;0.00;0.00;;;;;;;;;;7380053;19;20156;-71
2023/08/12 13:20:13;;;;;;;0.00;0.00;;;;;;;;;;7383619;19;20128;-72
2023/08/12 13:22:42;;;;;;;0.00;0.00;;;;;;;;;;7380271;19;20159;-71
2023/08/12 13:25:12;;;;;;;0.00;0.00;;;;;;;;;;7381876;19;20156;-72